Latimer, Iowa
Current Conditions -  °F | °C
As of 10:15 AM on Thursday 23 Oct 2014 (Local Time) from KCAV Reporting Station
Haze Haze  
Wind Chill: 55°   Ceiling: 300
Heat Index: 55°   Visibility: 0.5mi
Dew Point: 55°   Wind: 7mph
Humidity: 100%   Direction: 260°W
Pressure: 30.04"   Gusts: NA
Location:  42.76°N, 93.37°W
Report Text: KCAV 231515Z AUTO 26006KT 1/2SM BR OVC003 13/13 A3004 RMK AO2
Loading
Personal Weather Stations






























Interactive Weather Map
Tropical Storm Tracking
New forecast layout! Learn more

10-Day Weather Forecast

Advertisements
Track Severe Weather on mobile